sensor_id;sensor_type;location;lat;lon;timestamp;temperature;humidity
6110;DHT22;3085;49.444;11.054;2022-12-05T00:01:13;6.70;99.90
6110;DHT22;3085;49.444;11.054;2022-12-05T00:03:42;6.60;99.90
6110;DHT22;3085;49.444;11.054;2022-12-05T00:06:09;6.60;99.90
6110;DHT22;3085;49.444;11.054;2022-12-05T00:08:36;6.70;99.90
6110;DHT22;3085;49.444;11.054;2022-12-05T00:11:03;6.60;99.90
6110;DHT22;3085;49.444;11.054;2022-12-05T00:13:29;7.30;99.90
6110;DHT22;3085;49.444;11.054;2022-12-05T00:15:56;6.60;99.90
6110;DHT22;3085;49.444;11.054;2022-12-05T00:18:23;6.50;99.90
6110;DHT22;3085;49.444;11.054;2022-12-05T00:20:51;6.60;99.90
6110;DHT22;3085;49.444;11.054;2022-12-05T00:23:18;6.70;99.90
6110;DHT22;3085;49.444;11.054;2022-12-05T00:25:45;6.40;99.90
6110;DHT22;3085;49.444;11.054;2022-12-05T00:28:12;6.30;99.90
6110;DHT22;3085;49.444;11.054;2022-12-05T00:30:39;6.40;99.90
6110;DHT22;3085;49.444;11.054;2022-12-05T00:33:06;6.40;99.90
6110;DHT22;3085;49.444;11.054;2022-12-05T00:35:33;6.50;99.90
6110;DHT22;3085;49.444;11.054;2022-12-05T00:38:01;6.40;99.90
6110;DHT22;3085;49.444;11.054;2022-12-05T00:40:28;6.40;99.90
6110;DHT22;3085;49.444;11.054;2022-12-05T00:42:55;6.30;99.90
6110;DHT22;3085;49.444;11.054;2022-12-05T00:45:22;6.40;99.90
6110;DHT22;3085;49.444;11.054;2022-12-05T00:47:49;6.40;99.90
6110;DHT22;3085;49.444;11.054;2022-12-05T00:50:16;6.40;99.90
6110;DHT22;3085;49.444;11.054;2022-12-05T00:52:42;6.40;99.90
6110;DHT22;3085;49.444;11.054;2022-12-05T00:55:11;6.30;99.90
6110;DHT22;3085;49.444;11.054;2022-12-05T00:57:37;6.30;99.90
6110;DHT22;3085;49.444;11.054;2022-12-05T01:00:06;6.30;99.90
6110;DHT22;3085;49.444;11.054;2022-12-05T01:02:33;6.30;99.90
6110;DHT22;3085;49.444;11.054;2022-12-05T01:05:00;6.30;99.90
6110;DHT22;3085;49.444;11.054;2022-12-05T01:07:26;6.40;99.90
6110;DHT22;3085;49.444;11.054;2022-12-05T01:09:53;6.40;99.90
6110;DHT22;3085;49.444;11.054;2022-12-05T01:12:21;6.30;99.90
6110;DHT22;3085;49.444;11.054;2022-12-05T01:14:48;6.10;99.90
6110;DHT22;3085;49.444;11.054;2022-12-05T01:17:15;6.10;99.90
6110;DHT22;3085;49.444;11.054;2022-12-05T01:19:42;6.10;99.90
6110;DHT22;3085;49.444;11.054;2022-12-05T01:22:09;6.20;99.90
6110;DHT22;3085;49.444;11.054;2022-12-05T01:24:36;6.10;99.90
6110;DHT22;3085;49.444;11.054;2022-12-05T01:27:03;6.10;99.90
6110;DHT22;3085;49.444;11.054;2022-12-05T01:29:31;6.10;99.90
6110;DHT22;3085;49.444;11.054;2022-12-05T01:31:58;6.20;99.90
6110;DHT22;3085;49.444;11.054;2022-12-05T01:34:25;6.10;99.90
6110;DHT22;3085;49.444;11.054;2022-12-05T01:36:51;6.10;99.90
6110;DHT22;3085;49.444;11.054;2022-12-05T01:39:19;6.20;99.90
6110;DHT22;3085;49.444;11.054;2022-12-05T01:41:47;6.10;99.90
6110;DHT22;3085;49.444;11.054;2022-12-05T01:44:59;6.00;99.90
6110;DHT22;3085;49.444;11.054;2022-12-05T01:49:59;6.00;99.90
6110;DHT22;3085;49.444;11.054;2022-12-05T01:52:28;6.10;99.90
6110;DHT22;3085;49.444;11.054;2022-12-05T01:55:00;6.10;99.90
6110;DHT22;3085;49.444;11.054;2022-12-05T01:57:28;6.20;99.90
6110;DHT22;3085;49.444;11.054;2022-12-05T02:00:00;6.10;99.90
6110;DHT22;3085;49.444;11.054;2022-12-05T02:02:28;6.00;99.90
6110;DHT22;3085;49.444;11.054;2022-12-05T02:05:00;6.10;99.90
6110;DHT22;3085;49.444;11.054;2022-12-05T02:07:28;6.10;99.90
6110;DHT22;3085;49.444;11.054;2022-12-05T02:09:55;6.10;99.90
6110;DHT22;3085;49.444;11.054;2022-12-05T02:12:22;6.10;99.90
6110;DHT22;3085;49.444;11.054;2022-12-05T02:15:01;6.10;99.90
6110;DHT22;3085;49.444;11.054;2022-12-05T02:17:35;6.10;99.90
6110;DHT22;3085;49.444;11.054;2022-12-05T02:20:18;6.10;99.90
6110;DHT22;3085;49.444;11.054;2022-12-05T02:23:07;6.00;99.90
6110;DHT22;3085;49.444;11.054;2022-12-05T02:25:57;6.20;99.90
6110;DHT22;3085;49.444;11.054;2022-12-05T02:28:43;6.00;99.90
6110;DHT22;3085;49.444;11.054;2022-12-05T02:31:15;6.10;99.90
6110;DHT22;3085;49.444;11.054;2022-12-05T02:33:47;6.10;99.90
6110;DHT22;3085;49.444;11.054;2022-12-05T02:36:22;6.10;99.90
6110;DHT22;3085;49.444;11.054;2022-12-05T02:38:57;6.10;99.90
6110;DHT22;3085;49.444;11.054;2022-12-05T02:41:30;6.10;99.90
6110;DHT22;3085;49.444;11.054;2022-12-05T02:44:02;6.00;99.90
6110;DHT22;3085;49.444;11.054;2022-12-05T02:46:33;6.00;99.90
6110;DHT22;3085;49.444;11.054;2022-12-05T02:49:04;5.90;99.90
6110;DHT22;3085;49.444;11.054;2022-12-05T02:51:34;6.10;99.90
6110;DHT22;3085;49.444;11.054;2022-12-05T02:54:05;5.80;99.90
6110;DHT22;3085;49.444;11.054;2022-12-05T02:56:35;5.70;99.90
6110;DHT22;3085;49.444;11.054;2022-12-05T02:59:02;5.80;99.90
6110;DHT22;3085;49.444;11.054;2022-12-05T03:01:31;5.80;99.90
6110;DHT22;3085;49.444;11.054;2022-12-05T03:04:00;5.80;99.90
6110;DHT22;3085;49.444;11.054;2022-12-05T03:06:31;6.30;99.90
6110;DHT22;3085;49.444;11.054;2022-12-05T03:09:01;5.70;99.90
6110;DHT22;3085;49.444;11.054;2022-12-05T03:11:33;6.20;99.90
6110;DHT22;3085;49.444;11.054;2022-12-05T03:14:02;5.60;99.90
6110;DHT22;3085;49.444;11.054;2022-12-05T03:16:35;5.70;99.90
6110;DHT22;3085;49.444;11.054;2022-12-05T03:19:09;5.60;99.90
6110;DHT22;3085;49.444;11.054;2022-12-05T03:21:42;5.60;99.90
6110;DHT22;3085;49.444;11.054;2022-12-05T03:24:13;5.50;99.90
6110;DHT22;3085;49.444;11.054;2022-12-05T03:26:47;5.40;99.90
6110;DHT22;3085;49.444;11.054;2022-12-05T03:29:24;5.40;99.90
6110;DHT22;3085;49.444;11.054;2022-12-05T03:32:01;5.50;99.90
6110;DHT22;3085;49.444;11.054;2022-12-05T03:34:40;5.60;99.90
6110;DHT22;3085;49.444;11.054;2022-12-05T03:37:14;5.60;99.90
6110;DHT22;3085;49.444;11.054;2022-12-05T03:39:46;5.60;99.90
6110;DHT22;3085;49.444;11.054;2022-12-05T03:42:18;5.60;99.90
6110;DHT22;3085;49.444;11.054;2022-12-05T03:44:49;5.60;99.90
6110;DHT22;3085;49.444;11.054;2022-12-05T03:47:24;5.90;99.90
6110;DHT22;3085;49.444;11.054;2022-12-05T03:49:56;5.60;99.90
6110;DHT22;3085;49.444;11.054;2022-12-05T03:52:27;5.60;99.90
6110;DHT22;3085;49.444;11.054;2022-12-05T03:54:57;5.60;99.90
6110;DHT22;3085;49.444;11.054;2022-12-05T03:57:28;5.60;99.90
6110;DHT22;3085;49.444;11.054;2022-12-05T03:59:58;5.50;99.90
6110;DHT22;3085;49.444;11.054;2022-12-05T04:02:32;5.60;99.90
6110;DHT22;3085;49.444;11.054;2022-12-05T04:05:04;5.40;99.90
6110;DHT22;3085;49.444;11.054;2022-12-05T04:07:35;5.30;99.90
6110;DHT22;3085;49.444;11.054;2022-12-05T04:10:07;5.30;99.90
6110;DHT22;3085;49.444;11.054;2022-12-05T04:12:36;5.40;99.90
6110;DHT22;3085;49.444;11.054;2022-12-05T04:15:08;5.40;99.90
6110;DHT22;3085;49.444;11.054;2022-12-05T04:17:44;5.30;99.90
6110;DHT22;3085;49.444;11.054;2022-12-05T04:20:14;5.40;99.90
6110;DHT22;3085;49.444;11.054;2022-12-05T04:23:00;5.30;99.90
6110;DHT22;3085;49.444;11.054;2022-12-05T04:25:33;5.20;99.90
6110;DHT22;3085;49.444;11.054;2022-12-05T04:28:17;5.30;99.90
6110;DHT22;3085;49.444;11.054;2022-12-05T04:30:51;5.10;99.90
6110;DHT22;3085;49.444;11.054;2022-12-05T04:33:28;5.00;99.90
6110;DHT22;3085;49.444;11.054;2022-12-05T04:36:02;5.10;99.90
6110;DHT22;3085;49.444;11.054;2022-12-05T04:38:38;5.30;99.90
6110;DHT22;3085;49.444;11.054;2022-12-05T04:41:11;5.20;99.90
6110;DHT22;3085;49.444;11.054;2022-12-05T04:43:41;5.10;99.90
6110;DHT22;3085;49.444;11.054;2022-12-05T04:46:11;5.10;99.90
6110;DHT22;3085;49.444;11.054;2022-12-05T04:48:42;5.10;99.90
6110;DHT22;3085;49.444;11.054;2022-12-05T04:51:15;4.90;99.90
6110;DHT22;3085;49.444;11.054;2022-12-05T04:53:44;4.90;99.90
6110;DHT22;3085;49.444;11.054;2022-12-05T04:56:14;4.90;99.90
6110;DHT22;3085;49.444;11.054;2022-12-05T04:58:43;4.90;99.90
6110;DHT22;3085;49.444;11.054;2022-12-05T05:01:13;4.90;99.90
6110;DHT22;3085;49.444;11.054;2022-12-05T05:03:44;4.90;99.90
6110;DHT22;3085;49.444;11.054;2022-12-05T05:06:13;5.00;99.90
6110;DHT22;3085;49.444;11.054;2022-12-05T05:08:46;4.90;99.90
6110;DHT22;3085;49.444;11.054;2022-12-05T05:11:17;5.00;99.90
6110;DHT22;3085;49.444;11.054;2022-12-05T05:13:44;5.00;99.90
6110;DHT22;3085;49.444;11.054;2022-12-05T05:16:13;5.00;99.90
6110;DHT22;3085;49.444;11.054;2022-12-05T05:18:44;4.90;99.90
6110;DHT22;3085;49.444;11.054;2022-12-05T05:21:16;4.90;99.90
6110;DHT22;3085;49.444;11.054;2022-12-05T05:23:44;4.90;99.90
6110;DHT22;3085;49.444;11.054;2022-12-05T05:26:11;4.80;99.90
6110;DHT22;3085;49.444;11.054;2022-12-05T05:28:38;4.80;99.90
6110;DHT22;3085;49.444;11.054;2022-12-05T05:31:05;4.80;99.90
6110;DHT22;3085;49.444;11.054;2022-12-05T05:33:33;4.80;99.90
6110;DHT22;3085;49.444;11.054;2022-12-05T05:36:03;4.90;99.90
6110;DHT22;3085;49.444;11.054;2022-12-05T05:38:30;4.90;99.90
6110;DHT22;3085;49.444;11.054;2022-12-05T05:40:57;4.80;99.90
6110;DHT22;3085;49.444;11.054;2022-12-05T05:43:24;4.80;99.90
6110;DHT22;3085;49.444;11.054;2022-12-05T05:45:50;4.90;99.90
6110;DHT22;3085;49.444;11.054;2022-12-05T05:48:17;4.70;99.90
6110;DHT22;3085;49.444;11.054;2022-12-05T05:50:44;4.80;99.90
6110;DHT22;3085;49.444;11.054;2022-12-05T05:53:12;4.70;99.90
6110;DHT22;3085;49.444;11.054;2022-12-05T05:55:40;4.80;99.90
6110;DHT22;3085;49.444;11.054;2022-12-05T05:58:07;5.20;99.90
6110;DHT22;3085;49.444;11.054;2022-12-05T06:00:34;4.70;99.90
6110;DHT22;3085;49.444;11.054;2022-12-05T06:03:01;4.60;99.90
6110;DHT22;3085;49.444;11.054;2022-12-05T06:05:28;4.50;99.90
6110;DHT22;3085;49.444;11.054;2022-12-05T06:07:55;4.50;99.90
6110;DHT22;3085;49.444;11.054;2022-12-05T06:10:23;4.50;99.90
6110;DHT22;3085;49.444;11.054;2022-12-05T06:12:50;4.40;99.90
6110;DHT22;3085;49.444;11.054;2022-12-05T06:15:17;4.40;99.90
6110;DHT22;3085;49.444;11.054;2022-12-05T06:17:43;4.50;99.90
6110;DHT22;3085;49.444;11.054;2022-12-05T06:20:11;4.30;99.90
6110;DHT22;3085;49.444;11.054;2022-12-05T06:22:38;4.30;99.90
6110;DHT22;3085;49.444;11.054;2022-12-05T06:25:06;4.50;99.90
6110;DHT22;3085;49.444;11.054;2022-12-05T06:27:34;4.20;99.90
6110;DHT22;3085;49.444;11.054;2022-12-05T06:30:01;4.30;99.90
6110;DHT22;3085;49.444;11.054;2022-12-05T06:32:28;4.30;99.90
6110;DHT22;3085;49.444;11.054;2022-12-05T06:34:55;4.20;99.90
6110;DHT22;3085;49.444;11.054;2022-12-05T06:37:22;4.60;99.90
6110;DHT22;3085;49.444;11.054;2022-12-05T06:39:50;4.20;99.90
6110;DHT22;3085;49.444;11.054;2022-12-05T06:42:17;4.40;99.90
6110;DHT22;3085;49.444;11.054;2022-12-05T06:44:45;4.50;99.90
6110;DHT22;3085;49.444;11.054;2022-12-05T06:47:15;4.30;99.90
6110;DHT22;3085;49.444;11.054;2022-12-05T06:49:42;4.30;99.90
6110;DHT22;3085;49.444;11.054;2022-12-05T06:52:09;4.30;99.90
6110;DHT22;3085;49.444;11.054;2022-12-05T06:54:36;4.30;99.90
6110;DHT22;3085;49.444;11.054;2022-12-05T06:57:05;4.20;99.90
6110;DHT22;3085;49.444;11.054;2022-12-05T06:59:34;4.30;99.90
6110;DHT22;3085;49.444;11.054;2022-12-05T07:02:02;4.50;99.90
6110;DHT22;3085;49.444;11.054;2022-12-05T07:04:31;4.50;99.90
6110;DHT22;3085;49.444;11.054;2022-12-05T07:06:58;4.40;99.90
6110;DHT22;3085;49.444;11.054;2022-12-05T07:09:27;4.40;99.90
6110;DHT22;3085;49.444;11.054;2022-12-05T07:12:08;4.40;99.90
6110;DHT22;3085;49.444;11.054;2022-12-05T07:14:35;4.30;99.90
6110;DHT22;3085;49.444;11.054;2022-12-05T07:17:05;4.40;99.90
6110;DHT22;3085;49.444;11.054;2022-12-05T07:19:33;4.70;99.90
6110;DHT22;3085;49.444;11.054;2022-12-05T07:22:01;4.30;99.90
6110;DHT22;3085;49.444;11.054;2022-12-05T07:24:28;4.10;99.90
6110;DHT22;3085;49.444;11.054;2022-12-05T07:26:55;4.00;99.90
6110;DHT22;3085;49.444;11.054;2022-12-05T07:29:26;4.00;99.90
6110;DHT22;3085;49.444;11.054;2022-12-05T07:31:53;4.20;99.90
6110;DHT22;3085;49.444;11.054;2022-12-05T07:34:22;4.20;99.90
6110;DHT22;3085;49.444;11.054;2022-12-05T07:36:49;4.90;99.90
6110;DHT22;3085;49.444;11.054;2022-12-05T07:39:15;4.20;99.90
6110;DHT22;3085;49.444;11.054;2022-12-05T07:41:42;4.20;99.90
6110;DHT22;3085;49.444;11.054;2022-12-05T07:44:11;4.90;99.90
6110;DHT22;3085;49.444;11.054;2022-12-05T07:46:38;4.30;99.90
6110;DHT22;3085;49.444;11.054;2022-12-05T07:49:06;4.60;99.90
6110;DHT22;3085;49.444;11.054;2022-12-05T07:51:34;4.20;99.90
6110;DHT22;3085;49.444;11.054;2022-12-05T07:54:02;5.60;99.90
6110;DHT22;3085;49.444;11.054;2022-12-05T07:56:29;4.30;99.90
6110;DHT22;3085;49.444;11.054;2022-12-05T07:58:56;4.30;99.90
6110;DHT22;3085;49.444;11.054;2022-12-05T08:01:26;4.20;99.90
6110;DHT22;3085;49.444;11.054;2022-12-05T08:03:54;4.20;99.90
6110;DHT22;3085;49.444;11.054;2022-12-05T08:06:23;4.20;99.90
6110;DHT22;3085;49.444;11.054;2022-12-05T08:08:52;4.20;99.90
6110;DHT22;3085;49.444;11.054;2022-12-05T08:11:20;4.30;99.90
6110;DHT22;3085;49.444;11.054;2022-12-05T08:13:48;4.20;99.90
6110;DHT22;3085;49.444;11.054;2022-12-05T08:16:17;4.40;99.90
6110;DHT22;3085;49.444;11.054;2022-12-05T08:18:45;4.40;99.90
6110;DHT22;3085;49.444;11.054;2022-12-05T08:21:17;4.40;99.90
6110;DHT22;3085;49.444;11.054;2022-12-05T08:23:45;4.20;99.90
6110;DHT22;3085;49.444;11.054;2022-12-05T08:26:15;4.50;99.90
6110;DHT22;3085;49.444;11.054;2022-12-05T08:28:43;4.40;99.90
6110;DHT22;3085;49.444;11.054;2022-12-05T08:31:12;4.50;99.90
6110;DHT22;3085;49.444;11.054;2022-12-05T08:33:40;4.50;99.90
6110;DHT22;3085;49.444;11.054;2022-12-05T08:36:10;4.40;99.90
6110;DHT22;3085;49.444;11.054;2022-12-05T08:38:37;4.30;99.90
6110;DHT22;3085;49.444;11.054;2022-12-05T08:41:06;4.40;99.90
6110;DHT22;3085;49.444;11.054;2022-12-05T08:43:34;4.50;99.90
6110;DHT22;3085;49.444;11.054;2022-12-05T08:46:02;4.50;99.90
6110;DHT22;3085;49.444;11.054;2022-12-05T08:48:30;4.50;99.90
6110;DHT22;3085;49.444;11.054;2022-12-05T08:50:58;4.50;99.90
6110;DHT22;3085;49.444;11.054;2022-12-05T08:53:25;4.50;99.90
6110;DHT22;3085;49.444;11.054;2022-12-05T08:55:52;4.40;99.90
6110;DHT22;3085;49.444;11.054;2022-12-05T08:58:19;4.50;99.90
6110;DHT22;3085;49.444;11.054;2022-12-05T09:00:47;4.50;99.90
6110;DHT22;3085;49.444;11.054;2022-12-05T09:03:14;4.50;99.90
6110;DHT22;3085;49.444;11.054;2022-12-05T09:05:41;5.30;99.90
6110;DHT22;3085;49.444;11.054;2022-12-05T09:08:08;4.50;99.90
6110;DHT22;3085;49.444;11.054;2022-12-05T09:10:36;4.50;99.90
6110;DHT22;3085;49.444;11.054;2022-12-05T09:13:03;4.20;99.90
6110;DHT22;3085;49.444;11.054;2022-12-05T09:15:30;4.60;99.90
6110;DHT22;3085;49.444;11.054;2022-12-05T09:17:58;4.60;99.90
6110;DHT22;3085;49.444;11.054;2022-12-05T09:20:25;4.70;99.90
6110;DHT22;3085;49.444;11.054;2022-12-05T09:22:54;4.60;99.90
6110;DHT22;3085;49.444;11.054;2022-12-05T09:25:21;4.70;99.90
6110;DHT22;3085;49.444;11.054;2022-12-05T09:27:50;4.70;99.90
6110;DHT22;3085;49.444;11.054;2022-12-05T09:30:19;4.90;99.90
6110;DHT22;3085;49.444;11.054;2022-12-05T09:32:46;4.60;99.90
6110;DHT22;3085;49.444;11.054;2022-12-05T09:35:15;6.40;99.90
6110;DHT22;3085;49.444;11.054;2022-12-05T09:37:42;4.80;99.90
6110;DHT22;3085;49.444;11.054;2022-12-05T09:40:14;4.80;99.90
6110;DHT22;3085;49.444;11.054;2022-12-05T09:42:54;4.90;99.90
6110;DHT22;3085;49.444;11.054;2022-12-05T09:45:28;4.80;99.90
6110;DHT22;3085;49.444;11.054;2022-12-05T09:47:58;4.60;99.90
6110;DHT22;3085;49.444;11.054;2022-12-05T09:50:28;4.80;99.90
6110;DHT22;3085;49.444;11.054;2022-12-05T09:53:10;4.80;99.90
6110;DHT22;3085;49.444;11.054;2022-12-05T09:55:44;4.90;99.90
6110;DHT22;3085;49.444;11.054;2022-12-05T09:58:20;4.90;99.90
6110;DHT22;3085;49.444;11.054;2022-12-05T10:00:50;4.80;99.90
6110;DHT22;3085;49.444;11.054;2022-12-05T10:03:25;6.50;99.90
6110;DHT22;3085;49.444;11.054;2022-12-05T10:06:01;4.80;99.90
6110;DHT22;3085;49.444;11.054;2022-12-05T10:08:34;4.90;99.90
6110;DHT22;3085;49.444;11.054;2022-12-05T10:11:07;4.90;99.90
6110;DHT22;3085;49.444;11.054;2022-12-05T10:13:49;4.80;99.90
6110;DHT22;3085;49.444;11.054;2022-12-05T10:16:28;4.90;99.90
6110;DHT22;3085;49.444;11.054;2022-12-05T10:18:57;4.90;99.90
6110;DHT22;3085;49.444;11.054;2022-12-05T10:21:31;5.00;99.90
6110;DHT22;3085;49.444;11.054;2022-12-05T10:24:01;5.10;99.90
6110;DHT22;3085;49.444;11.054;2022-12-05T10:26:31;5.10;99.90
6110;DHT22;3085;49.444;11.054;2022-12-05T10:29:06;5.10;99.90
6110;DHT22;3085;49.444;11.054;2022-12-05T10:31:37;5.10;99.90
6110;DHT22;3085;49.444;11.054;2022-12-05T10:34:12;5.10;99.90
6110;DHT22;3085;49.444;11.054;2022-12-05T10:36:46;4.90;99.90
6110;DHT22;3085;49.444;11.054;2022-12-05T10:39:18;4.90;99.90
6110;DHT22;3085;49.444;11.054;2022-12-05T10:41:45;5.00;99.90
6110;DHT22;3085;49.444;11.054;2022-12-05T10:44:12;5.00;99.90
6110;DHT22;3085;49.444;11.054;2022-12-05T10:46:39;5.10;99.90
6110;DHT22;3085;49.444;11.054;2022-12-05T10:49:10;5.10;99.90
6110;DHT22;3085;49.444;11.054;2022-12-05T10:51:37;5.10;99.90
6110;DHT22;3085;49.444;11.054;2022-12-05T10:54:14;5.10;99.90
6110;DHT22;3085;49.444;11.054;2022-12-05T10:56:43;5.10;99.90
6110;DHT22;3085;49.444;11.054;2022-12-05T10:59:13;5.20;99.90
6110;DHT22;3085;49.444;11.054;2022-12-05T11:01:44;5.20;99.90
6110;DHT22;3085;49.444;11.054;2022-12-05T11:04:27;5.30;99.90
6110;DHT22;3085;49.444;11.054;2022-12-05T11:06:58;5.20;99.90
6110;DHT22;3085;49.444;11.054;2022-12-05T11:09:28;5.10;99.90
6110;DHT22;3085;49.444;11.054;2022-12-05T11:12:17;5.10;99.90
6110;DHT22;3085;49.444;11.054;2022-12-05T11:15:02;5.00;99.90
6110;DHT22;3085;49.444;11.054;2022-12-05T11:17:36;5.30;99.90
6110;DHT22;3085;49.444;11.054;2022-12-05T11:20:32;5.30;99.90
6110;DHT22;3085;49.444;11.054;2022-12-05T11:23:16;5.40;99.90
6110;DHT22;3085;49.444;11.054;2022-12-05T11:25:43;5.30;99.90
6110;DHT22;3085;49.444;11.054;2022-12-05T11:28:29;5.50;99.90
6110;DHT22;3085;49.444;11.054;2022-12-05T11:30:59;5.40;99.90
6110;DHT22;3085;49.444;11.054;2022-12-05T11:33:28;5.40;99.90
6110;DHT22;3085;49.444;11.054;2022-12-05T11:36:00;5.50;99.90
6110;DHT22;3085;49.444;11.054;2022-12-05T11:38:30;5.50;99.90
6110;DHT22;3085;49.444;11.054;2022-12-05T11:41:12;5.50;99.90
6110;DHT22;3085;49.444;11.054;2022-12-05T11:43:51;5.30;99.90
6110;DHT22;3085;49.444;11.054;2022-12-05T11:46:30;5.40;99.90
6110;DHT22;3085;49.444;11.054;2022-12-05T11:49:26;5.40;99.90
6110;DHT22;3085;49.444;11.054;2022-12-05T11:52:03;5.40;99.90
6110;DHT22;3085;49.444;11.054;2022-12-05T11:54:46;5.40;99.90
6110;DHT22;3085;49.444;11.054;2022-12-05T11:57:25;5.30;99.90
6110;DHT22;3085;49.444;11.054;2022-12-05T12:00:20;5.40;99.90
6110;DHT22;3085;49.444;11.054;2022-12-05T12:03:13;5.30;99.90
6110;DHT22;3085;49.444;11.054;2022-12-05T12:05:47;5.50;99.90
6110;DHT22;3085;49.444;11.054;2022-12-05T12:08:20;5.60;99.90
6110;DHT22;3085;49.444;11.054;2022-12-05T12:10:54;5.60;99.90
6110;DHT22;3085;49.444;11.054;2022-12-05T12:13:34;5.60;99.90
6110;DHT22;3085;49.444;11.054;2022-12-05T12:16:09;5.70;99.90
6110;DHT22;3085;49.444;11.054;2022-12-05T12:19:13;5.70;99.90
6110;DHT22;3085;49.444;11.054;2022-12-05T12:22:03;5.70;99.90
6110;DHT22;3085;49.444;11.054;2022-12-05T12:24:38;5.80;99.90
6110;DHT22;3085;49.444;11.054;2022-12-05T12:27:22;5.90;99.90
6110;DHT22;3085;49.444;11.054;2022-12-05T12:30:02;5.70;99.90
6110;DHT22;3085;49.444;11.054;2022-12-05T12:32:41;5.80;99.90
6110;DHT22;3085;49.444;11.054;2022-12-05T12:35:37;5.60;99.90
6110;DHT22;3085;49.444;11.054;2022-12-05T12:38:37;5.60;99.90
6110;DHT22;3085;49.444;11.054;2022-12-05T12:41:12;5.50;99.90
6110;DHT22;3085;49.444;11.054;2022-12-05T12:43:55;5.60;99.90
6110;DHT22;3085;49.444;11.054;2022-12-05T12:46:40;5.50;99.90
6110;DHT22;3085;49.444;11.054;2022-12-05T12:49:32;5.60;99.90
6110;DHT22;3085;49.444;11.054;2022-12-05T12:52:03;6.70;99.90
6110;DHT22;3085;49.444;11.054;2022-12-05T12:54:46;5.60;99.90
6110;DHT22;3085;49.444;11.054;2022-12-05T12:57:21;5.60;99.90
6110;DHT22;3085;49.444;11.054;2022-12-05T13:00:19;5.60;99.90
6110;DHT22;3085;49.444;11.054;2022-12-05T13:02:50;5.60;99.90
6110;DHT22;3085;49.444;11.054;2022-12-05T13:05:26;5.60;99.90
6110;DHT22;3085;49.444;11.054;2022-12-05T13:07:58;5.70;99.90
6110;DHT22;3085;49.444;11.054;2022-12-05T13:10:32;5.70;99.90
6110;DHT22;3085;49.444;11.054;2022-12-05T13:13:02;5.70;99.90
6110;DHT22;3085;49.444;11.054;2022-12-05T13:15:34;5.60;99.90
6110;DHT22;3085;49.444;11.054;2022-12-05T13:18:06;5.70;99.90
6110;DHT22;3085;49.444;11.054;2022-12-05T13:20:38;5.60;99.90
6110;DHT22;3085;49.444;11.054;2022-12-05T13:23:06;5.70;99.90
6110;DHT22;3085;49.444;11.054;2022-12-05T13:25:39;6.00;99.90
6110;DHT22;3085;49.444;11.054;2022-12-05T13:28:30;5.70;99.90
6110;DHT22;3085;49.444;11.054;2022-12-05T13:31:00;5.70;99.90
6110;DHT22;3085;49.444;11.054;2022-12-05T13:33:32;5.80;99.90
6110;DHT22;3085;49.444;11.054;2022-12-05T13:36:05;5.80;99.90
6110;DHT22;3085;49.444;11.054;2022-12-05T13:38:56;5.80;99.90
6110;DHT22;3085;49.444;11.054;2022-12-05T13:41:43;5.70;99.90
6110;DHT22;3085;49.444;11.054;2022-12-05T13:44:35;5.70;99.90
6110;DHT22;3085;49.444;11.054;2022-12-05T13:47:05;5.70;99.90
6110;DHT22;3085;49.444;11.054;2022-12-05T13:49:40;5.70;99.90
6110;DHT22;3085;49.444;11.054;2022-12-05T13:52:12;5.80;99.90
6110;DHT22;3085;49.444;11.054;2022-12-05T13:54:44;5.70;99.90
6110;DHT22;3085;49.444;11.054;2022-12-05T13:57:47;5.70;99.90
6110;DHT22;3085;49.444;11.054;2022-12-05T14:00:29;5.80;99.90
6110;DHT22;3085;49.444;11.054;2022-12-05T14:03:00;5.80;99.90
6110;DHT22;3085;49.444;11.054;2022-12-05T14:05:41;5.70;99.90
6110;DHT22;3085;49.444;11.054;2022-12-05T14:11:12;5.60;99.90
6110;DHT22;3085;49.444;11.054;2022-12-05T14:13:43;5.90;99.90
6110;DHT22;3085;49.444;11.054;2022-12-05T14:16:41;5.70;99.90
6110;DHT22;3085;49.444;11.054;2022-12-05T14:22:51;5.80;99.90
6110;DHT22;3085;49.444;11.054;2022-12-05T14:25:34;5.70;99.90
6110;DHT22;3085;49.444;11.054;2022-12-05T14:28:14;5.70;99.90
6110;DHT22;3085;49.444;11.054;2022-12-05T14:30:58;5.60;99.90
6110;DHT22;3085;49.444;11.054;2022-12-05T14:33:29;5.60;99.90
6110;DHT22;3085;49.444;11.054;2022-12-05T14:36:04;5.70;99.90
6110;DHT22;3085;49.444;11.054;2022-12-05T14:38:34;5.70;99.90
6110;DHT22;3085;49.444;11.054;2022-12-05T14:41:11;5.80;99.90
6110;DHT22;3085;49.444;11.054;2022-12-05T14:43:40;5.80;99.90
6110;DHT22;3085;49.444;11.054;2022-12-05T14:46:15;5.70;99.90
6110;DHT22;3085;49.444;11.054;2022-12-05T14:48:43;6.40;99.90
6110;DHT22;3085;49.444;11.054;2022-12-05T14:54:12;5.70;99.90
6110;DHT22;3085;49.444;11.054;2022-12-05T14:56:42;5.60;99.90
6110;DHT22;3085;49.444;11.054;2022-12-05T14:59:20;5.70;99.90
6110;DHT22;3085;49.444;11.054;2022-12-05T15:01:50;5.70;99.90
6110;DHT22;3085;49.444;11.054;2022-12-05T15:04:19;5.60;99.90
6110;DHT22;3085;49.444;11.054;2022-12-05T15:06:51;5.70;99.90
6110;DHT22;3085;49.444;11.054;2022-12-05T15:09:34;5.60;99.90
6110;DHT22;3085;49.444;11.054;2022-12-05T15:12:05;5.60;99.90
6110;DHT22;3085;49.444;11.054;2022-12-05T15:14:38;5.50;99.90
6110;DHT22;3085;49.444;11.054;2022-12-05T15:17:14;5.50;99.90
6110;DHT22;3085;49.444;11.054;2022-12-05T15:19:46;5.50;99.90
6110;DHT22;3085;49.444;11.054;2022-12-05T15:22:18;5.40;99.90
6110;DHT22;3085;49.444;11.054;2022-12-05T15:24:48;5.40;99.90
6110;DHT22;3085;49.444;11.054;2022-12-05T15:27:15;5.50;99.90
6110;DHT22;3085;49.444;11.054;2022-12-05T15:29:42;5.50;99.90
6110;DHT22;3085;49.444;11.054;2022-12-05T15:32:24;5.40;99.90
6110;DHT22;3085;49.444;11.054;2022-12-05T15:34:56;5.60;99.90
6110;DHT22;3085;49.444;11.054;2022-12-05T15:37:30;6.20;99.90
6110;DHT22;3085;49.444;11.054;2022-12-05T15:40:00;5.60;99.90
6110;DHT22;3085;49.444;11.054;2022-12-05T15:42:29;5.60;99.90
6110;DHT22;3085;49.444;11.054;2022-12-05T15:45:21;5.90;99.90
6110;DHT22;3085;49.444;11.054;2022-12-05T15:47:53;5.70;99.90
6110;DHT22;3085;49.444;11.054;2022-12-05T15:50:28;5.30;99.90
6110;DHT22;3085;49.444;11.054;2022-12-05T15:53:09;5.60;99.90
6110;DHT22;3085;49.444;11.054;2022-12-05T15:55:44;6.30;99.90
6110;DHT22;3085;49.444;11.054;2022-12-05T15:58:22;6.20;99.90
6110;DHT22;3085;49.444;11.054;2022-12-05T16:00:51;5.50;99.90
6110;DHT22;3085;49.444;11.054;2022-12-05T16:03:22;5.50;99.90
6110;DHT22;3085;49.444;11.054;2022-12-05T16:08:39;5.60;99.90
6110;DHT22;3085;49.444;11.054;2022-12-05T16:11:10;5.60;99.90
6110;DHT22;3085;49.444;11.054;2022-12-05T16:13:42;5.40;99.90
6110;DHT22;3085;49.444;11.054;2022-12-05T16:16:15;5.50;99.90
6110;DHT22;3085;49.444;11.054;2022-12-05T16:18:49;5.40;99.90
6110;DHT22;3085;49.444;11.054;2022-12-05T16:21:30;5.50;99.90
6110;DHT22;3085;49.444;11.054;2022-12-05T16:24:02;5.50;99.90
6110;DHT22;3085;49.444;11.054;2022-12-05T16:26:36;5.50;99.90
6110;DHT22;3085;49.444;11.054;2022-12-05T16:29:03;5.50;99.90
6110;DHT22;3085;49.444;11.054;2022-12-05T16:31:31;5.60;99.90
6110;DHT22;3085;49.444;11.054;2022-12-05T16:34:04;5.50;99.90
6110;DHT22;3085;49.444;11.054;2022-12-05T16:36:32;5.40;99.90
6110;DHT22;3085;49.444;11.054;2022-12-05T16:39:02;5.50;99.90
6110;DHT22;3085;49.444;11.054;2022-12-05T16:41:38;5.50;99.90
6110;DHT22;3085;49.444;11.054;2022-12-05T16:47:16;5.50;99.90
6110;DHT22;3085;49.444;11.054;2022-12-05T16:49:48;5.50;99.90
6110;DHT22;3085;49.444;11.054;2022-12-05T16:52:16;5.50;99.90